Grayling, MI

7:24 AM EST on January 17, 2017 (GMT -0500)
Grayling

Weather History for KGOV - December, 2013

Change the Weather History Date:

Sunday, December 29, 2013

  Actual Average (KHTL) Record (KHTL)
Temperature  
Mean Temperature 23 °F -  
Max Temperature 38 °F 27 °F 55 °F (1984)
Min Temperature 7 °F 13 °F -25 °F (1933)
Degree Days  
Heating Degree Days 42    
Moisture  
Dew Point 18 °F    
Average Humidity 82    
Maximum Humidity 100    
Minimum Humidity 67    
Precipitation  
Precipitation 0.00 in - - ()
Sea Level Pressure  
Sea Level Pressure 29.79 in    
Wind  
Wind Speed 9 mph (WNW)    
Max Wind Speed 18 mph    
Max Gust Speed 28 mph    
Visibility 7 miles    
Events Snow    
Averages and records for this station are not official NWS values.
T = Trace of Precipitation, MM = Missing Value Source: NWS Daily Summary

Daily Weather History Graph

Daily Weather History Graph

Search for Another Location

Airport or City:

Trip Planner

Search our weather history database for the weather conditions in past years. The results will help you decide how hot, cold, wet, or windy it might be!

Date:

Astronomy

Dec. 29, 2013 Rise Set
Actual Time 8:15 AM EST 5:06 PM EST
Civil Twilight 7:42 AM EST 5:40 PM EST
Nautical Twilight 7:05 AM EST 6:17 PM EST
Astronomical Twilight 6:29 AM EST 6:52 PM EST
Moon 4:54 AM EST (12/29) 2:47 PM EST (12/29)
Length of Visible Light 9h 57m
Length of Day
8h 50m
Waning Crescent, 11% of the Moon is Illuminated
Dec 29
Waning Crescent
Jan 1
New
Jan 7
First Quarter
Jan 15
Full
Jan 24
Last Quarter

Hourly Weather History & Observations

Time (EST) Temp. Windchill Dew Point Humidity Pressure Visibility Wind Dir Wind Speed Gust Speed Precip Events Conditions
12:14 AM 22.8 °F - 22.5 °F 99% 29.73 in 1.8 mi Calm Calm - N/A   Mist
12:35 AM 34.7 °F 28.1 °F 34.7 °F 100% 29.71 in 10.0 mi WSW 8.1 mph - N/A   Clear
12:55 AM 37.6 °F 30.5 °F 32.7 °F 83% 29.70 in 10.0 mi WSW 10.4 mph 16.1 mph N/A   Scattered Clouds
1:15 AM 38.5 °F 32.7 °F 31.3 °F 75% 29.70 in 10.0 mi WSW 8.1 mph - N/A   Clear
1:35 AM 38.8 °F 32.6 °F 30.9 °F 73% 29.70 in 10.0 mi SW 9.2 mph 16.1 mph N/A   Clear
1:55 AM 38.7 °F 32.9 °F 30.2 °F 72% 29.69 in 10.0 mi WSW 8.1 mph - N/A   Clear
2:15 AM 37.6 °F 31.6 °F 30.0 °F 74% 29.68 in 10.0 mi WSW 8.1 mph - N/A   Clear
2:35 AM 37.6 °F 32.3 °F 30.6 °F 76% 29.68 in 10.0 mi WSW 6.9 mph - N/A   Clear
2:55 AM 37.2 °F 33.6 °F 30.7 °F 77% 29.69 in 10.0 mi WSW 4.6 mph - N/A   Clear
3:15 AM 36.0 °F 32.1 °F 30.0 °F 79% 29.70 in 10.0 mi SSW 4.6 mph - N/A   Clear
3:35 AM 35.2 °F 31.2 °F 29.3 °F 79% 29.69 in 10.0 mi SSW 4.6 mph - N/A   Clear
3:55 AM 35.2 °F 30.3 °F 30.2 °F 82% 29.69 in 10.0 mi SSW 5.8 mph - N/A   Clear
4:15 AM 35.1 °F 31.0 °F 30.7 °F 84% 29.69 in 10.0 mi SSW 4.6 mph - N/A   Clear
4:35 AM 33.8 °F 29.6 °F 30.2 °F 87% 29.69 in 10.0 mi SSW 4.6 mph - N/A   Clear
4:54 AM 32.9 °F 28.5 °F 29.8 °F 88% 29.68 in 10.0 mi SSW 4.6 mph - N/A   Clear
5:15 AM 32.9 °F 29.8 °F 30.2 °F 90% 29.67 in 10.0 mi SW 3.5 mph - N/A   Mostly Cloudy
5:35 AM 28.2 °F - 26.6 °F 94% 29.67 in 10.0 mi Calm Calm - N/A   Overcast
5:55 AM 30.2 °F - 28.4 °F 93% 29.67 in 10.0 mi Calm Calm - N/A   Overcast
6:15 AM 32.5 °F - 31.3 °F 95% 29.67 in 10.0 mi Calm Calm - N/A   Overcast
6:35 AM 32.9 °F 29.8 °F 30.4 °F 90% 29.67 in 10.0 mi West 3.5 mph - N/A   Overcast
6:55 AM 34.9 °F 32.0 °F 32.0 °F 89% 29.68 in 10.0 mi WSW 3.5 mph - N/A   Overcast
7:15 AM 35.2 °F 28.1 °F 32.0 °F 88% 29.68 in 7.0 mi WNW 9.2 mph - N/A   Overcast
7:35 AM 32.9 °F 26.7 °F 32.0 °F 96% 29.69 in 2.5 mi WNW 6.9 mph - N/A   Overcast
7:55 AM 32.9 °F 26.7 °F 32.0 °F 96% 29.69 in 2.0 mi West 6.9 mph - N/A   Overcast
8:15 AM 32.9 °F 24.7 °F 32.2 °F 97% 29.71 in 1.2 mi West 10.4 mph - N/A   Overcast
8:34 AM 32.9 °F 27.5 °F 32.4 °F 98% 29.71 in 0.8 mi West 5.8 mph - N/A   Overcast
8:55 AM 30.9 °F 22.8 °F 30.7 °F 99% 29.71 in 1.0 mi West 9.2 mph 17.3 mph N/A   Overcast
9:15 AM 28.0 °F 16.5 °F 27.9 °F 99% 29.72 in 1.0 mi NW 15.0 mph 21.9 mph N/A   Overcast
9:34 AM 28.0 °F 17.5 °F 27.9 °F 99% 29.72 in 1.5 mi WNW 12.7 mph 16.1 mph N/A   Overcast
9:55 AM 27.7 °F 14.8 °F 27.1 °F 98% 29.73 in 2.5 mi NW 18.4 mph - N/A   Overcast
10:14 AM 24.4 °F 11.5 °F 23.0 °F 94% 29.75 in 3.0 mi NW 16.1 mph 21.9 mph N/A   Overcast
10:35 AM 23.0 °F 9.2 °F 21.0 °F 92% 29.76 in 2.5 mi NW 17.3 mph 21.9 mph N/A   Overcast
10:55 AM 21.2 °F 10.1 °F 18.7 °F 90% 29.77 in 3.0 mi NNW 10.4 mph - N/A   Overcast
11:14 AM 20.8 °F 7.9 °F 18.0 °F 89% 29.78 in 5.0 mi NW 13.8 mph 19.6 mph N/A   Overcast
11:35 AM 20.1 °F 7.5 °F 17.1 °F 88% 29.78 in 7.0 mi NNW 12.7 mph 20.7 mph N/A   Overcast
11:55 AM 19.2 °F 5.8 °F 15.8 °F 87% 29.77 in 10.0 mi NNW 13.8 mph 18.4 mph N/A   Overcast
12:14 PM 19.2 °F 4.3 °F 15.6 °F 86% 29.77 in 10.0 mi NNW 17.3 mph 24.2 mph N/A   Overcast
12:35 PM 18.5 °F 4.9 °F 14.7 °F 85% 29.77 in 10.0 mi NNW 13.8 mph 23.0 mph N/A   Overcast
12:55 PM 18.3 °F 6.6 °F 14.9 °F 86% 29.76 in 10.0 mi NNW 10.4 mph 16.1 mph N/A   Overcast
1:15 PM 18.9 °F 4.3 °F 14.7 °F 84% 29.77 in 2.5 mi NW 16.1 mph 19.6 mph N/A Snow Light Snow
1:35 PM 18.3 °F 4.1 °F 13.1 °F 80% 29.77 in 7.0 mi NW 15.0 mph 24.2 mph N/A Snow Light Snow
1:55 PM 18.0 °F 3.1 °F 13.1 °F 81% 29.78 in 4.0 mi NW 16.1 mph 21.9 mph N/A Snow Light Snow
2:15 PM 18.1 °F 5.0 °F 13.6 °F 83% 29.78 in 2.5 mi NW 12.7 mph 19.6 mph N/A Snow Light Snow
2:35 PM 18.1 °F 3.4 °F 12.6 °F 79% 29.79 in 3.0 mi WNW 16.1 mph 23.0 mph N/A Snow Light Snow
2:55 PM 18.0 °F 3.6 °F 11.3 °F 75% 29.79 in 4.0 mi NW 15.0 mph 27.6 mph N/A Snow Light Snow
3:15 PM 16.7 °F 2.0 °F 10.4 °F 76% 29.80 in 7.0 mi NW 15.0 mph 21.9 mph N/A Snow Light Snow
3:34 PM 15.8 °F -0.6 °F 9.5 °F 76% 29.80 in 5.0 mi NW 18.4 mph 24.2 mph N/A Snow Light Snow
3:55 PM 15.4 °F 1.6 °F 9.5 °F 77% 29.81 in 4.0 mi NW 12.7 mph 23.0 mph N/A Snow Light Snow
4:15 PM 15.4 °F -1.1 °F 9.5 °F 77% 29.82 in 5.0 mi NW 18.4 mph 26.5 mph N/A Snow Light Snow
4:34 PM 15.4 °F 1.6 °F 9.5 °F 77% 29.84 in 4.0 mi NW 12.7 mph 19.6 mph N/A Snow Light Snow
4:55 PM 14.9 °F -0.8 °F 9.1 °F 78% 29.85 in 3.0 mi NW 16.1 mph 21.9 mph N/A Snow Light Snow
5:15 PM 13.8 °F -1.7 °F 8.1 °F 78% 29.86 in 5.0 mi NNW 15.0 mph 23.0 mph N/A Snow Light Snow
5:34 PM 14.0 °F -0.8 °F 8.2 °F 78% 29.87 in 10.0 mi NW 13.8 mph 20.7 mph N/A Snow Light Snow
5:55 PM 12.9 °F -2.2 °F 6.8 °F 77% 29.87 in 10.0 mi NW 13.8 mph 20.7 mph N/A Snow Light Snow
6:15 PM 12.9 °F -4.4 °F 7.0 °F 77% 29.88 in 7.0 mi NW 18.4 mph 24.2 mph N/A Snow Light Snow
6:34 PM 12.9 °F -2.2 °F 6.8 °F 77% 29.89 in 10.0 mi NW 13.8 mph - N/A   Overcast
6:55 PM 12.9 °F -2.8 °F 6.4 °F 75% 29.89 in 10.0 mi NW 15.0 mph 20.7 mph N/A   Overcast
7:15 PM 12.9 °F -3.4 °F 5.9 °F 74% 29.90 in 10.0 mi NNW 16.1 mph 21.9 mph N/A   Overcast
7:35 PM 12.9 °F -2.2 °F 5.4 °F 72% 29.91 in 5.0 mi NW 13.8 mph 26.5 mph N/A   Haze
7:55 PM 12.9 °F -4.4 °F 4.3 °F 68% 29.91 in 7.0 mi NW 18.4 mph 25.3 mph N/A   Overcast
8:15 PM 12.9 °F -0.2 °F 5.0 °F 71% 29.91 in 10.0 mi WNW 10.4 mph - N/A   Overcast
8:35 PM 12.9 °F -2.8 °F 4.8 °F 70% 29.92 in 10.0 mi NW 15.0 mph 21.9 mph N/A   Overcast
8:55 PM 11.3 °F -5.5 °F 3.4 °F 70% 29.93 in 10.0 mi NW 16.1 mph 24.2 mph N/A   Overcast
9:14 PM 10.6 °F -3.1 °F 3.0 °F 72% 29.94 in 10.0 mi WNW 10.4 mph - N/A   Overcast
9:35 PM 10.4 °F -2.4 °F 3.2 °F 73% 29.94 in 10.0 mi WNW 9.2 mph - N/A   Overcast
9:55 PM 10.4 °F -4.1 °F 3.2 °F 73% 29.95 in 10.0 mi NW 11.5 mph 20.7 mph N/A   Overcast
10:15 PM 10.4 °F -3.3 °F 2.8 °F 72% 29.95 in 10.0 mi NW 10.4 mph - N/A   Overcast
10:35 PM 10.4 °F -4.8 °F 2.8 °F 72% 29.96 in 10.0 mi NW 12.7 mph 19.6 mph N/A   Overcast
10:55 PM 10.2 °F -5.0 °F 2.5 °F 71% 29.96 in 10.0 mi WNW 12.7 mph 18.4 mph N/A   Mostly Cloudy
11:15 PM 9.1 °F -8.8 °F 1.2 °F 70% 29.96 in 10.0 mi NW 17.3 mph 21.9 mph N/A   Scattered Clouds
11:35 PM 8.2 °F -8.8 °F -0.8 °F 67% 29.97 in 10.0 mi NW 15.0 mph 21.9 mph N/A   Scattered Clouds
11:55 PM 7.7 °F -8.9 °F -0.6 °F 69% 29.98 in 10.0 mi NW 13.8 mph - N/A   Scattered Clouds